sensor_id;sensor_type;location;lat;lon;timestamp;pressure;altitude;pressure_sealevel;temperature;humidity
40872;BME280;26591;43.264;26.940;2023-07-02T00:01:46;98203.69;;;21.64;52.64
40872;BME280;26591;43.264;26.940;2023-07-02T00:04:13;98187.91;;;21.78;51.90
40872;BME280;26591;43.264;26.940;2023-07-02T00:06:42;98189.56;;;21.89;51.89
40872;BME280;26591;43.264;26.940;2023-07-02T00:09:09;98189.84;;;21.93;51.86
40872;BME280;26591;43.264;26.940;2023-07-02T00:11:40;98186.28;;;21.77;52.17
40872;BME280;26591;43.264;26.940;2023-07-02T00:14:07;98178.75;;;21.79;51.93
40872;BME280;26591;43.264;26.940;2023-07-02T00:16:33;98178.38;;;21.60;52.70
40872;BME280;26591;43.264;26.940;2023-07-02T00:18:59;98176.53;;;21.71;52.66
40872;BME280;26591;43.264;26.940;2023-07-02T00:21:28;98185.25;;;21.88;52.28
40872;BME280;26591;43.264;26.940;2023-07-02T00:23:55;98177.94;;;21.78;52.21
40872;BME280;26591;43.264;26.940;2023-07-02T00:26:27;98176.13;;;21.89;52.05
40872;BME280;26591;43.264;26.940;2023-07-02T00:28:55;98177.66;;;21.75;52.40
40872;BME280;26591;43.264;26.940;2023-07-02T00:31:22;98169.09;;;21.83;51.99
40872;BME280;26591;43.264;26.940;2023-07-02T00:33:49;98164.25;;;21.90;51.68
40872;BME280;26591;43.264;26.940;2023-07-02T00:36:14;98157.84;;;21.97;51.63
40872;BME280;26591;43.264;26.940;2023-07-02T00:38:48;98167.88;;;22.12;51.37
40872;BME280;26591;43.264;26.940;2023-07-02T00:41:14;98160.09;;;22.20;51.61
40872;BME280;26591;43.264;26.940;2023-07-02T00:43:40;98162.81;;;22.25;50.93
40872;BME280;26591;43.264;26.940;2023-07-02T00:46:14;98159.63;;;22.44;51.01
40872;BME280;26591;43.264;26.940;2023-07-02T00:48:46;98157.72;;;22.34;51.14
40872;BME280;26591;43.264;26.940;2023-07-02T00:51:17;98156.03;;;22.18;51.45
40872;BME280;26591;43.264;26.940;2023-07-02T00:53:44;98151.19;;;22.25;51.35
40872;BME280;26591;43.264;26.940;2023-07-02T00:56:14;98149.84;;;22.22;51.93
40872;BME280;26591;43.264;26.940;2023-07-02T00:58:43;98158.19;;;22.21;52.05
40872;BME280;26591;43.264;26.940;2023-07-02T01:01:17;98157.41;;;22.20;52.21
40872;BME280;26591;43.264;26.940;2023-07-02T01:03:55;98157.94;;;22.22;52.19
40872;BME280;26591;43.264;26.940;2023-07-02T01:06:29;98149.06;;;22.27;52.34
40872;BME280;26591;43.264;26.940;2023-07-02T01:08:57;98148.50;;;22.25;52.40
40872;BME280;26591;43.264;26.940;2023-07-02T01:11:28;98143.09;;;22.15;53.19
40872;BME280;26591;43.264;26.940;2023-07-02T01:14:01;98132.25;;;21.99;53.82
40872;BME280;26591;43.264;26.940;2023-07-02T01:16:29;98137.81;;;21.77;54.57
40872;BME280;26591;43.264;26.940;2023-07-02T01:18:58;98146.13;;;21.70;54.45
40872;BME280;26591;43.264;26.940;2023-07-02T01:21:28;98145.94;;;21.82;54.44
40872;BME280;26591;43.264;26.940;2023-07-02T01:23:54;98141.69;;;21.54;55.24
40872;BME280;26591;43.264;26.940;2023-07-02T01:26:20;98146.91;;;21.66;55.04
40872;BME280;26591;43.264;26.940;2023-07-02T01:28:48;98136.44;;;21.69;54.80
40872;BME280;26591;43.264;26.940;2023-07-02T01:31:13;98140.22;;;21.73;54.44
40872;BME280;26591;43.264;26.940;2023-07-02T01:33:40;98145.97;;;21.92;53.96
40872;BME280;26591;43.264;26.940;2023-07-02T01:36:05;98143.00;;;21.94;53.86
40872;BME280;26591;43.264;26.940;2023-07-02T01:38:31;98143.50;;;21.86;53.85
40872;BME280;26591;43.264;26.940;2023-07-02T01:40:56;98144.06;;;21.93;54.06
40872;BME280;26591;43.264;26.940;2023-07-02T01:43:22;98145.72;;;21.99;53.74
40872;BME280;26591;43.264;26.940;2023-07-02T01:45:48;98150.84;;;22.01;54.16
40872;BME280;26591;43.264;26.940;2023-07-02T01:48:13;98146.84;;;22.14;53.89
40872;BME280;26591;43.264;26.940;2023-07-02T01:50:39;98138.22;;;22.12;54.05
40872;BME280;26591;43.264;26.940;2023-07-02T01:53:04;98145.25;;;22.13;54.04
40872;BME280;26591;43.264;26.940;2023-07-02T01:55:30;98152.25;;;22.14;54.30
40872;BME280;26591;43.264;26.940;2023-07-02T01:57:55;98149.03;;;22.17;54.26
40872;BME280;26591;43.264;26.940;2023-07-02T02:00:21;98142.56;;;22.23;54.18
40872;BME280;26591;43.264;26.940;2023-07-02T02:02:46;98144.75;;;22.26;53.90
40872;BME280;26591;43.264;26.940;2023-07-02T02:05:11;98138.31;;;22.32;53.90
40872;BME280;26591;43.264;26.940;2023-07-02T02:07:37;98135.59;;;22.27;53.84
40872;BME280;26591;43.264;26.940;2023-07-02T02:10:03;98129.13;;;22.28;54.04
40872;BME280;26591;43.264;26.940;2023-07-02T02:12:29;98138.56;;;22.25;53.89
40872;BME280;26591;43.264;26.940;2023-07-02T02:14:55;98125.63;;;22.33;54.17
40872;BME280;26591;43.264;26.940;2023-07-02T02:17:21;98127.03;;;22.46;53.65
40872;BME280;26591;43.264;26.940;2023-07-02T02:19:46;98123.00;;;22.48;53.61
40872;BME280;26591;43.264;26.940;2023-07-02T02:22:12;98131.03;;;22.28;54.37
40872;BME280;26591;43.264;26.940;2023-07-02T02:24:37;98121.84;;;22.29;53.99
40872;BME280;26591;43.264;26.940;2023-07-02T02:27:03;98128.31;;;22.28;53.77
40872;BME280;26591;43.264;26.940;2023-07-02T02:29:28;98128.03;;;22.19;54.07
40872;BME280;26591;43.264;26.940;2023-07-02T02:31:54;98129.31;;;22.06;54.00
40872;BME280;26591;43.264;26.940;2023-07-02T02:34:19;98130.66;;;22.03;53.91
40872;BME280;26591;43.264;26.940;2023-07-02T02:36:45;98126.91;;;22.04;53.92
40872;BME280;26591;43.264;26.940;2023-07-02T02:39:12;98130.16;;;22.17;53.12
40872;BME280;26591;43.264;26.940;2023-07-02T02:41:37;98133.16;;;22.31;52.87
40872;BME280;26591;43.264;26.940;2023-07-02T02:44:03;98131.25;;;22.21;52.74
40872;BME280;26591;43.264;26.940;2023-07-02T02:46:28;98126.94;;;22.20;52.66
40872;BME280;26591;43.264;26.940;2023-07-02T02:48:54;98126.66;;;22.16;52.48
40872;BME280;26591;43.264;26.940;2023-07-02T02:51:20;98128.81;;;22.19;52.40
40872;BME280;26591;43.264;26.940;2023-07-02T02:53:45;98124.50;;;22.18;52.20
40872;BME280;26591;43.264;26.940;2023-07-02T02:56:11;98134.22;;;22.19;51.93
40872;BME280;26591;43.264;26.940;2023-07-02T02:58:37;98139.16;;;22.43;51.02
40872;BME280;26591;43.264;26.940;2023-07-02T03:01:02;98143.25;;;22.61;51.06
40872;BME280;26591;43.264;26.940;2023-07-02T03:03:34;98151.91;;;22.89;50.40
40872;BME280;26591;43.264;26.940;2023-07-02T03:06:05;98142.72;;;23.11;49.87
40872;BME280;26591;43.264;26.940;2023-07-02T03:08:30;98147.88;;;23.23;49.06
40872;BME280;26591;43.264;26.940;2023-07-02T03:10:56;98148.19;;;23.21;49.70
40872;BME280;26591;43.264;26.940;2023-07-02T03:13:22;98149.50;;;23.13;49.86
40872;BME280;26591;43.264;26.940;2023-07-02T03:15:47;98145.44;;;23.00;49.83
40872;BME280;26591;43.264;26.940;2023-07-02T03:18:13;98153.78;;;23.04;49.85
40872;BME280;26591;43.264;26.940;2023-07-02T03:20:38;98153.28;;;22.97;49.77
40872;BME280;26591;43.264;26.940;2023-07-02T03:23:04;98153.00;;;22.78;49.77
40872;BME280;26591;43.264;26.940;2023-07-02T03:25:29;98148.63;;;22.66;50.47
40872;BME280;26591;43.264;26.940;2023-07-02T03:27:55;98161.06;;;22.73;50.36
40872;BME280;26591;43.264;26.940;2023-07-02T03:30:21;98160.53;;;22.76;50.37
40872;BME280;26591;43.264;26.940;2023-07-02T03:32:46;98158.06;;;22.59;50.41
40872;BME280;26591;43.264;26.940;2023-07-02T03:35:12;98156.44;;;22.58;50.70
40872;BME280;26591;43.264;26.940;2023-07-02T03:37:37;98153.75;;;22.52;51.10
40872;BME280;26591;43.264;26.940;2023-07-02T03:40:03;98153.22;;;22.61;50.62
40872;BME280;26591;43.264;26.940;2023-07-02T03:42:29;98155.09;;;22.55;50.69
40872;BME280;26591;43.264;26.940;2023-07-02T03:44:55;98155.91;;;22.61;50.91
40872;BME280;26591;43.264;26.940;2023-07-02T03:47:20;98157.00;;;22.65;51.00
40872;BME280;26591;43.264;26.940;2023-07-02T03:49:47;98164.81;;;22.61;50.85
40872;BME280;26591;43.264;26.940;2023-07-02T03:52:13;98158.34;;;22.62;51.23
40872;BME280;26591;43.264;26.940;2023-07-02T03:54:44;98160.47;;;22.45;51.40
40872;BME280;26591;43.264;26.940;2023-07-02T03:57:09;98170.41;;;22.39;52.24
40872;BME280;26591;43.264;26.940;2023-07-02T03:59:35;98161.25;;;22.45;51.80
40872;BME280;26591;43.264;26.940;2023-07-02T04:02:00;98158.31;;;22.52;51.70
40872;BME280;26591;43.264;26.940;2023-07-02T04:04:26;98167.75;;;22.49;51.70
40872;BME280;26591;43.264;26.940;2023-07-02T04:06:52;98165.00;;;22.39;52.00
40872;BME280;26591;43.264;26.940;2023-07-02T04:09:17;98163.47;;;22.64;52.12
40872;BME280;26591;43.264;26.940;2023-07-02T04:11:44;98169.97;;;22.78;51.51
40872;BME280;26591;43.264;26.940;2023-07-02T04:14:09;98164.53;;;22.58;51.57
40872;BME280;26591;43.264;26.940;2023-07-02T04:16:35;98164.25;;;22.49;51.53
40872;BME280;26591;43.264;26.940;2023-07-02T04:19:00;98164.28;;;22.69;51.62
40872;BME280;26591;43.264;26.940;2023-07-02T04:21:26;98164.06;;;22.86;51.80
40872;BME280;26591;43.264;26.940;2023-07-02T04:23:51;98163.53;;;23.10;51.82
40872;BME280;26591;43.264;26.940;2023-07-02T04:26:17;98159.72;;;23.47;51.60
40872;BME280;26591;43.264;26.940;2023-07-02T04:28:43;98169.56;;;24.19;50.49
40872;BME280;26591;43.264;26.940;2023-07-02T04:31:08;98167.09;;;24.78;47.97
40872;BME280;26591;43.264;26.940;2023-07-02T04:33:34;98166.72;;;24.95;47.51
40872;BME280;26591;43.264;26.940;2023-07-02T04:36:02;98176.53;;;25.21;46.95
40872;BME280;26591;43.264;26.940;2023-07-02T04:38:28;98172.00;;;25.11;47.23
40872;BME280;26591;43.264;26.940;2023-07-02T04:40:54;98170.03;;;25.22;46.58
40872;BME280;26591;43.264;26.940;2023-07-02T04:43:22;98174.91;;;25.20;46.63
40872;BME280;26591;43.264;26.940;2023-07-02T04:45:49;98178.44;;;25.20;45.93
40872;BME280;26591;43.264;26.940;2023-07-02T04:48:14;98175.84;;;25.39;46.50
40872;BME280;26591;43.264;26.940;2023-07-02T04:50:44;98178.56;;;25.34;46.07
40872;BME280;26591;43.264;26.940;2023-07-02T04:53:09;98183.88;;;25.15;46.84
40872;BME280;26591;43.264;26.940;2023-07-02T04:55:35;98181.59;;;25.33;46.82
40872;BME280;26591;43.264;26.940;2023-07-02T04:58:00;98186.78;;;25.58;46.65
40872;BME280;26591;43.264;26.940;2023-07-02T05:00:25;98187.88;;;26.11;45.97
40872;BME280;26591;43.264;26.940;2023-07-02T05:02:51;98186.34;;;26.87;44.82
40872;BME280;26591;43.264;26.940;2023-07-02T05:05:17;98187.47;;;27.85;43.06
40872;BME280;26591;43.264;26.940;2023-07-02T05:07:43;98191.00;;;28.78;40.92
40872;BME280;26591;43.264;26.940;2023-07-02T05:10:10;98197.28;;;29.24;40.72
40872;BME280;26591;43.264;26.940;2023-07-02T05:12:35;98195.91;;;29.58;39.89
40872;BME280;26591;43.264;26.940;2023-07-02T05:15:01;98192.28;;;30.03;39.09
40872;BME280;26591;43.264;26.940;2023-07-02T05:17:26;98191.94;;;30.80;37.91
40872;BME280;26591;43.264;26.940;2023-07-02T05:19:51;98193.22;;;31.27;37.29
40872;BME280;26591;43.264;26.940;2023-07-02T05:22:18;98197.97;;;31.56;36.71
40872;BME280;26591;43.264;26.940;2023-07-02T05:24:43;98197.09;;;31.91;36.02
40872;BME280;26591;43.264;26.940;2023-07-02T05:27:09;98199.50;;;31.92;35.62
40872;BME280;26591;43.264;26.940;2023-07-02T05:29:34;98199.31;;;31.98;36.01
40872;BME280;26591;43.264;26.940;2023-07-02T05:32:00;98198.59;;;32.09;35.54
40872;BME280;26591;43.264;26.940;2023-07-02T05:34:25;98202.31;;;32.44;35.68
40872;BME280;26591;43.264;26.940;2023-07-02T05:36:51;98204.88;;;32.91;34.92
40872;BME280;26591;43.264;26.940;2023-07-02T05:39:16;98209.16;;;33.35;34.17
40872;BME280;26591;43.264;26.940;2023-07-02T05:41:42;98208.25;;;33.09;34.08
40872;BME280;26591;43.264;26.940;2023-07-02T05:44:07;98199.91;;;32.42;34.85
40872;BME280;26591;43.264;26.940;2023-07-02T05:46:33;98193.78;;;31.76;35.51
40872;BME280;26591;43.264;26.940;2023-07-02T05:48:59;98189.78;;;31.47;36.02
40872;BME280;26591;43.264;26.940;2023-07-02T05:51:25;98190.97;;;31.02;36.56
40872;BME280;26591;43.264;26.940;2023-07-02T05:53:51;98189.16;;;30.54;37.34
40872;BME280;26591;43.264;26.940;2023-07-02T05:56:19;98179.31;;;30.18;37.40
40872;BME280;26591;43.264;26.940;2023-07-02T05:58:48;98180.00;;;30.41;37.67
40872;BME280;26591;43.264;26.940;2023-07-02T06:01:14;98180.06;;;29.15;38.69
40872;BME280;26591;43.264;26.940;2023-07-02T06:03:40;98175.28;;;29.75;38.43
40872;BME280;26591;43.264;26.940;2023-07-02T06:06:05;98172.16;;;30.48;37.72
40872;BME280;26591;43.264;26.940;2023-07-02T06:08:31;98174.09;;;30.83;36.75
40872;BME280;26591;43.264;26.940;2023-07-02T06:10:56;98177.47;;;30.53;37.29
40872;BME280;26591;43.264;26.940;2023-07-02T06:13:22;98185.94;;;30.52;38.03
40872;BME280;26591;43.264;26.940;2023-07-02T06:15:47;98181.34;;;30.87;37.48
40872;BME280;26591;43.264;26.940;2023-07-02T06:18:13;98183.91;;;31.19;35.90
40872;BME280;26591;43.264;26.940;2023-07-02T06:20:38;98177.28;;;31.46;36.96
40872;BME280;26591;43.264;26.940;2023-07-02T06:23:05;98183.66;;;32.37;35.67
40872;BME280;26591;43.264;26.940;2023-07-02T06:25:30;98177.00;;;32.47;34.77
40872;BME280;26591;43.264;26.940;2023-07-02T06:27:57;98175.59;;;31.63;36.29
40872;BME280;26591;43.264;26.940;2023-07-02T06:30:24;98174.22;;;31.39;36.87
40872;BME280;26591;43.264;26.940;2023-07-02T06:32:50;98178.28;;;30.80;37.11
40872;BME280;26591;43.264;26.940;2023-07-02T06:35:15;98176.97;;;29.93;39.40
40872;BME280;26591;43.264;26.940;2023-07-02T06:37:41;98176.81;;;28.67;41.11
40872;BME280;26591;43.264;26.940;2023-07-02T06:40:07;98187.03;;;28.47;42.29
40872;BME280;26591;43.264;26.940;2023-07-02T06:42:33;98180.47;;;28.48;42.47
40872;BME280;26591;43.264;26.940;2023-07-02T06:44:59;98177.28;;;27.63;44.16
40872;BME280;26591;43.264;26.940;2023-07-02T06:47:24;98166.84;;;28.12;43.41
40872;BME280;26591;43.264;26.940;2023-07-02T06:49:52;98163.69;;;27.77;44.19
40872;BME280;26591;43.264;26.940;2023-07-02T06:52:17;98157.94;;;27.64;44.61
40872;BME280;26591;43.264;26.940;2023-07-02T06:54:42;98161.16;;;27.66;44.92
40872;BME280;26591;43.264;26.940;2023-07-02T06:57:08;98172.31;;;27.51;45.64
40872;BME280;26591;43.264;26.940;2023-07-02T06:59:33;98167.63;;;28.12;43.97
40872;BME280;26591;43.264;26.940;2023-07-02T07:01:59;98164.16;;;27.65;46.13
40872;BME280;26591;43.264;26.940;2023-07-02T07:04:24;98163.38;;;27.64;46.22
40872;BME280;26591;43.264;26.940;2023-07-02T07:06:50;98157.53;;;27.99;46.06
40872;BME280;26591;43.264;26.940;2023-07-02T07:09:15;98166.16;;;27.59;45.58
40872;BME280;26591;43.264;26.940;2023-07-02T07:11:42;98159.13;;;27.58;46.64
40872;BME280;26591;43.264;26.940;2023-07-02T07:14:08;98162.41;;;28.16;45.72
40872;BME280;26591;43.264;26.940;2023-07-02T07:16:34;98155.31;;;27.87;46.41
40872;BME280;26591;43.264;26.940;2023-07-02T07:19:00;98152.44;;;28.62;46.03
40872;BME280;26591;43.264;26.940;2023-07-02T07:21:25;98158.72;;;28.71;45.47
40872;BME280;26591;43.264;26.940;2023-07-02T07:23:51;98146.97;;;29.93;43.53
40872;BME280;26591;43.264;26.940;2023-07-02T07:26:16;98155.06;;;30.16;42.36
40872;BME280;26591;43.264;26.940;2023-07-02T07:28:42;98147.31;;;29.60;43.12
40872;BME280;26591;43.264;26.940;2023-07-02T07:31:07;98152.72;;;29.83;42.79
40872;BME280;26591;43.264;26.940;2023-07-02T07:33:33;98151.50;;;29.98;43.22
40872;BME280;26591;43.264;26.940;2023-07-02T07:35:58;98156.84;;;30.29;42.67
40872;BME280;26591;43.264;26.940;2023-07-02T07:38:25;98154.84;;;30.79;42.06
40872;BME280;26591;43.264;26.940;2023-07-02T07:40:51;98155.31;;;30.81;41.60
40872;BME280;26591;43.264;26.940;2023-07-02T07:43:16;98153.88;;;31.75;41.22
40872;BME280;26591;43.264;26.940;2023-07-02T07:45:51;98152.09;;;31.62;40.47
40872;BME280;26591;43.264;26.940;2023-07-02T07:48:16;98158.53;;;31.01;42.42
40872;BME280;26591;43.264;26.940;2023-07-02T07:50:42;98171.97;;;29.46;44.22
40872;BME280;26591;43.264;26.940;2023-07-02T07:53:07;98160.91;;;30.41;43.56
40872;BME280;26591;43.264;26.940;2023-07-02T07:55:33;98164.81;;;30.57;42.29
40872;BME280;26591;43.264;26.940;2023-07-02T07:57:58;98166.34;;;29.83;43.89
40872;BME280;26591;43.264;26.940;2023-07-02T08:00:25;98166.84;;;30.52;42.95
40872;BME280;26591;43.264;26.940;2023-07-02T08:02:52;98170.84;;;30.37;43.33
40872;BME280;26591;43.264;26.940;2023-07-02T08:05:20;98168.34;;;30.58;43.38
40872;BME280;26591;43.264;26.940;2023-07-02T08:07:47;98168.78;;;30.51;43.47
40872;BME280;26591;43.264;26.940;2023-07-02T08:10:13;98164.22;;;30.20;43.33
40872;BME280;26591;43.264;26.940;2023-07-02T08:12:38;98160.38;;;30.21;43.78
40872;BME280;26591;43.264;26.940;2023-07-02T08:15:04;98167.84;;;30.82;42.99
40872;BME280;26591;43.264;26.940;2023-07-02T08:17:30;98165.53;;;30.32;43.78
40872;BME280;26591;43.264;26.940;2023-07-02T08:19:56;98170.06;;;30.54;43.65
40872;BME280;26591;43.264;26.940;2023-07-02T08:22:22;98169.13;;;31.11;42.85
40872;BME280;26591;43.264;26.940;2023-07-02T08:24:48;98169.13;;;30.94;42.83
40872;BME280;26591;43.264;26.940;2023-07-02T08:27:15;98162.81;;;29.82;43.69
40872;BME280;26591;43.264;26.940;2023-07-02T08:29:44;98158.47;;;30.22;44.13
40872;BME280;26591;43.264;26.940;2023-07-02T08:32:10;98154.19;;;30.73;42.53
40872;BME280;26591;43.264;26.940;2023-07-02T08:34:37;98149.06;;;30.81;42.27
40872;BME280;26591;43.264;26.940;2023-07-02T08:37:03;98156.44;;;30.80;42.58
40872;BME280;26591;43.264;26.940;2023-07-02T08:39:29;98142.31;;;30.60;42.79
40872;BME280;26591;43.264;26.940;2023-07-02T08:41:54;98147.13;;;30.81;42.74
40872;BME280;26591;43.264;26.940;2023-07-02T08:44:20;98151.06;;;31.45;41.75
40872;BME280;26591;43.264;26.940;2023-07-02T08:46:47;98152.25;;;32.13;40.86
40872;BME280;26591;43.264;26.940;2023-07-02T08:49:16;98155.56;;;32.28;40.07
40872;BME280;26591;43.264;26.940;2023-07-02T08:51:44;98159.41;;;31.96;39.99
40872;BME280;26591;43.264;26.940;2023-07-02T08:54:10;98156.69;;;31.49;41.26
40872;BME280;26591;43.264;26.940;2023-07-02T08:56:35;98153.72;;;31.15;41.95
40872;BME280;26591;43.264;26.940;2023-07-02T08:59:01;98157.31;;;31.93;40.62
40872;BME280;26591;43.264;26.940;2023-07-02T09:01:26;98151.50;;;31.95;40.28
40872;BME280;26591;43.264;26.940;2023-07-02T09:03:58;98158.31;;;32.19;39.79
40872;BME280;26591;43.264;26.940;2023-07-02T09:06:27;98153.88;;;31.75;41.08
40872;BME280;26591;43.264;26.940;2023-07-02T09:08:52;98162.34;;;31.83;40.95
40872;BME280;26591;43.264;26.940;2023-07-02T09:11:18;98156.75;;;32.09;40.57
40872;BME280;26591;43.264;26.940;2023-07-02T09:13:53;98156.19;;;31.94;41.16
40872;BME280;26591;43.264;26.940;2023-07-02T09:16:33;98162.25;;;31.70;40.67
40872;BME280;26591;43.264;26.940;2023-07-02T09:19:03;98160.59;;;31.30;42.66
40872;BME280;26591;43.264;26.940;2023-07-02T09:21:43;98154.75;;;32.27;40.04
40872;BME280;26591;43.264;26.940;2023-07-02T09:26:48;98157.31;;;31.93;41.80
40872;BME280;26591;43.264;26.940;2023-07-02T09:29:25;98164.22;;;32.72;39.76
40872;BME280;26591;43.264;26.940;2023-07-02T09:32:02;98164.13;;;33.23;38.86
40872;BME280;26591;43.264;26.940;2023-07-02T09:34:30;98159.53;;;33.27;38.73
40872;BME280;26591;43.264;26.940;2023-07-02T09:36:57;98164.69;;;33.87;38.64
40872;BME280;26591;43.264;26.940;2023-07-02T09:39:32;98162.25;;;34.35;36.75
40872;BME280;26591;43.264;26.940;2023-07-02T09:42:00;98152.78;;;34.33;37.02
40872;BME280;26591;43.264;26.940;2023-07-02T09:44:30;98148.22;;;34.00;37.37
40872;BME280;26591;43.264;26.940;2023-07-02T09:47:09;98146.16;;;33.84;37.86
40872;BME280;26591;43.264;26.940;2023-07-02T09:49:41;98144.56;;;33.71;38.03
40872;BME280;26591;43.264;26.940;2023-07-02T09:52:08;98149.47;;;33.53;38.54
40872;BME280;26591;43.264;26.940;2023-07-02T09:54:34;98151.28;;;33.61;38.37
40872;BME280;26591;43.264;26.940;2023-07-02T09:57:01;98147.78;;;33.98;37.36
40872;BME280;26591;43.264;26.940;2023-07-02T09:59:27;98140.09;;;34.28;36.50
40872;BME280;26591;43.264;26.940;2023-07-02T10:01:53;98136.09;;;34.26;37.15
40872;BME280;26591;43.264;26.940;2023-07-02T10:04:20;98139.44;;;33.94;36.76
40872;BME280;26591;43.264;26.940;2023-07-02T10:06:47;98129.69;;;33.72;36.24
40872;BME280;26591;43.264;26.940;2023-07-02T10:09:13;98140.00;;;33.75;36.64
40872;BME280;26591;43.264;26.940;2023-07-02T10:11:39;98134.97;;;33.52;35.99
40872;BME280;26591;43.264;26.940;2023-07-02T10:14:04;98136.22;;;33.09;37.55
40872;BME280;26591;43.264;26.940;2023-07-02T10:16:31;98135.91;;;32.68;36.42
40872;BME280;26591;43.264;26.940;2023-07-02T10:19:11;98129.91;;;32.32;38.37
40872;BME280;26591;43.264;26.940;2023-07-02T10:21:37;98136.59;;;32.14;38.80
40872;BME280;26591;43.264;26.940;2023-07-02T10:24:12;98139.16;;;32.19;38.31
40872;BME280;26591;43.264;26.940;2023-07-02T10:26:38;98141.41;;;32.17;38.88
40872;BME280;26591;43.264;26.940;2023-07-02T10:29:06;98138.69;;;32.17;38.43
40872;BME280;26591;43.264;26.940;2023-07-02T10:31:31;98134.53;;;32.10;38.48
40872;BME280;26591;43.264;26.940;2023-07-02T10:33:57;98133.06;;;31.44;39.44
40872;BME280;26591;43.264;26.940;2023-07-02T10:36:26;98130.00;;;31.37;39.73
40872;BME280;26591;43.264;26.940;2023-07-02T10:38:51;98140.03;;;31.07;41.09
40872;BME280;26591;43.264;26.940;2023-07-02T10:43:50;98139.84;;;31.12;41.83
40872;BME280;26591;43.264;26.940;2023-07-02T10:46:19;98141.66;;;31.16;42.65
40872;BME280;26591;43.264;26.940;2023-07-02T10:48:53;98144.41;;;31.16;41.75
40872;BME280;26591;43.264;26.940;2023-07-02T10:51:19;98146.38;;;31.46;41.60
40872;BME280;26591;43.264;26.940;2023-07-02T10:53:44;98138.41;;;31.32;41.68
40872;BME280;26591;43.264;26.940;2023-07-02T10:56:16;98132.16;;;31.05;41.74
40872;BME280;26591;43.264;26.940;2023-07-02T10:58:42;98141.81;;;31.02;41.64
40872;BME280;26591;43.264;26.940;2023-07-02T11:01:08;98144.06;;;31.00;41.17
40872;BME280;26591;43.264;26.940;2023-07-02T11:03:34;98131.88;;;30.80;41.13
40872;BME280;26591;43.264;26.940;2023-07-02T11:05:59;98129.47;;;30.70;39.87
40872;BME280;26591;43.264;26.940;2023-07-02T11:08:35;98131.69;;;30.41;39.02
40872;BME280;26591;43.264;26.940;2023-07-02T11:11:07;98139.22;;;30.44;38.91
40872;BME280;26591;43.264;26.940;2023-07-02T11:13:33;98139.44;;;30.66;37.75
40872;BME280;26591;43.264;26.940;2023-07-02T11:15:58;98133.81;;;30.71;37.88
40872;BME280;26591;43.264;26.940;2023-07-02T11:18:24;98129.28;;;30.40;38.64
40872;BME280;26591;43.264;26.940;2023-07-02T11:20:49;98124.66;;;30.58;39.23
40872;BME280;26591;43.264;26.940;2023-07-02T11:23:21;98117.75;;;30.60;39.73
40872;BME280;26591;43.264;26.940;2023-07-02T11:26:00;98120.94;;;30.63;40.46
40872;BME280;26591;43.264;26.940;2023-07-02T11:28:27;98118.41;;;30.57;40.57
40872;BME280;26591;43.264;26.940;2023-07-02T11:30:54;98113.22;;;30.47;40.64
40872;BME280;26591;43.264;26.940;2023-07-02T11:33:35;98115.63;;;30.40;41.22
40872;BME280;26591;43.264;26.940;2023-07-02T11:36:01;98114.00;;;30.12;42.13
40872;BME280;26591;43.264;26.940;2023-07-02T11:38:26;98106.00;;;30.42;42.47
40872;BME280;26591;43.264;26.940;2023-07-02T11:40:52;98111.44;;;30.42;43.44
40872;BME280;26591;43.264;26.940;2023-07-02T11:43:17;98109.84;;;30.50;43.80
40872;BME280;26591;43.264;26.940;2023-07-02T11:45:43;98115.63;;;30.40;44.41
40872;BME280;26591;43.264;26.940;2023-07-02T11:48:09;98118.03;;;30.50;43.93
40872;BME280;26591;43.264;26.940;2023-07-02T11:50:34;98121.41;;;30.47;45.66
40872;BME280;26591;43.264;26.940;2023-07-02T11:53:02;98113.25;;;30.56;45.38
40872;BME280;26591;43.264;26.940;2023-07-02T11:55:28;98119.16;;;30.40;47.06
40872;BME280;26591;43.264;26.940;2023-07-02T11:57:53;98115.47;;;30.89;46.04
40872;BME280;26591;43.264;26.940;2023-07-02T12:00:19;98117.56;;;30.83;46.17
40872;BME280;26591;43.264;26.940;2023-07-02T12:02:45;98116.25;;;30.98;45.82
40872;BME280;26591;43.264;26.940;2023-07-02T12:05:13;98118.97;;;31.07;46.86
40872;BME280;26591;43.264;26.940;2023-07-02T12:07:39;98110.75;;;31.25;46.34
40872;BME280;26591;43.264;26.940;2023-07-02T12:10:05;98111.72;;;31.29;46.01
40872;BME280;26591;43.264;26.940;2023-07-02T12:12:31;98105.84;;;31.48;45.17
40872;BME280;26591;43.264;26.940;2023-07-02T12:14:56;98106.84;;;31.43;44.40
40872;BME280;26591;43.264;26.940;2023-07-02T12:17:22;98107.88;;;31.21;45.00
40872;BME280;26591;43.264;26.940;2023-07-02T12:19:47;98104.81;;;31.23;45.36
40872;BME280;26591;43.264;26.940;2023-07-02T12:22:13;98110.16;;;31.01;46.51
40872;BME280;26591;43.264;26.940;2023-07-02T12:24:42;98110.00;;;30.98;46.21
40872;BME280;26591;43.264;26.940;2023-07-02T12:27:07;98118.47;;;31.23;46.14
40872;BME280;26591;43.264;26.940;2023-07-02T12:29:33;98111.94;;;31.54;46.19
40872;BME280;26591;43.264;26.940;2023-07-02T12:31:58;98112.09;;;31.57;45.39
40872;BME280;26591;43.264;26.940;2023-07-02T12:34:24;98110.13;;;31.75;44.95
40872;BME280;26591;43.264;26.940;2023-07-02T12:36:49;98109.69;;;31.56;44.64
40872;BME280;26591;43.264;26.940;2023-07-02T12:39:15;98113.59;;;31.46;44.98
40872;BME280;26591;43.264;26.940;2023-07-02T12:41:40;98109.81;;;31.20;44.85
40872;BME280;26591;43.264;26.940;2023-07-02T12:44:06;98115.63;;;31.58;44.32
40872;BME280;26591;43.264;26.940;2023-07-02T12:46:31;98124.91;;;31.74;44.11
40872;BME280;26591;43.264;26.940;2023-07-02T12:48:57;98118.44;;;31.40;44.64
40872;BME280;26591;43.264;26.940;2023-07-02T12:51:22;98106.44;;;31.62;43.86
40872;BME280;26591;43.264;26.940;2023-07-02T12:53:48;98105.56;;;31.79;42.16